sensor_id;sensor_type;location;lat;lon;timestamp;P1;durP1;ratioP1;P2;durP2;ratioP2
54823;SDS011;40724;53.196;5.980;2023-09-18T00:01:51;6.90;;;5.72;;
54823;SDS011;40724;53.196;5.980;2023-09-18T00:04:17;5.93;;;5.22;;
54823;SDS011;40724;53.196;5.980;2023-09-18T00:06:42;6.13;;;5.53;;
54823;SDS011;40724;53.196;5.980;2023-09-18T00:09:14;6.00;;;5.00;;
54823;SDS011;40724;53.196;5.980;2023-09-18T00:11:40;5.57;;;4.05;;
54823;SDS011;40724;53.196;5.980;2023-09-18T00:14:07;6.28;;;4.60;;
54823;SDS011;40724;53.196;5.980;2023-09-18T00:16:33;7.28;;;4.88;;
54823;SDS011;40724;53.196;5.980;2023-09-18T00:18:59;5.20;;;4.40;;
54823;SDS011;40724;53.196;5.980;2023-09-18T00:21:26;6.10;;;5.18;;
54823;SDS011;40724;53.196;5.980;2023-09-18T00:23:52;7.00;;;4.57;;
54823;SDS011;40724;53.196;5.980;2023-09-18T00:26:17;5.28;;;4.72;;
54823;SDS011;40724;53.196;5.980;2023-09-18T00:28:43;7.05;;;4.85;;
54823;SDS011;40724;53.196;5.980;2023-09-18T00:31:09;6.97;;;5.40;;
54823;SDS011;40724;53.196;5.980;2023-09-18T00:33:35;4.90;;;4.43;;
54823;SDS011;40724;53.196;5.980;2023-09-18T00:36:01;5.78;;;4.60;;
54823;SDS011;40724;53.196;5.980;2023-09-18T00:38:27;6.43;;;4.72;;
54823;SDS011;40724;53.196;5.980;2023-09-18T00:40:53;5.80;;;4.93;;
54823;SDS011;40724;53.196;5.980;2023-09-18T00:43:18;6.78;;;4.57;;
54823;SDS011;40724;53.196;5.980;2023-09-18T00:45:46;5.00;;;4.30;;
54823;SDS011;40724;53.196;5.980;2023-09-18T00:48:16;6.45;;;4.97;;
54823;SDS011;40724;53.196;5.980;2023-09-18T00:50:45;5.00;;;4.50;;
54823;SDS011;40724;53.196;5.980;2023-09-18T00:53:13;4.88;;;4.30;;
54823;SDS011;40724;53.196;5.980;2023-09-18T00:55:42;5.88;;;4.90;;
54823;SDS011;40724;53.196;5.980;2023-09-18T00:58:08;5.80;;;4.82;;
54823;SDS011;40724;53.196;5.980;2023-09-18T01:00:35;5.38;;;4.38;;
54823;SDS011;40724;53.196;5.980;2023-09-18T01:03:01;6.57;;;4.90;;
54823;SDS011;40724;53.196;5.980;2023-09-18T01:05:30;5.47;;;4.65;;
54823;SDS011;40724;53.196;5.980;2023-09-18T01:07:58;5.75;;;4.53;;
54823;SDS011;40724;53.196;5.980;2023-09-18T01:10:23;5.88;;;4.75;;
54823;SDS011;40724;53.196;5.980;2023-09-18T01:12:56;6.77;;;4.77;;
54823;SDS011;40724;53.196;5.980;2023-09-18T01:15:32;6.65;;;4.57;;
54823;SDS011;40724;53.196;5.980;2023-09-18T01:18:02;5.22;;;4.68;;
54823;SDS011;40724;53.196;5.980;2023-09-18T01:20:28;6.28;;;4.10;;
54823;SDS011;40724;53.196;5.980;2023-09-18T01:22:54;4.97;;;4.35;;
54823;SDS011;40724;53.196;5.980;2023-09-18T01:25:19;5.50;;;4.75;;
54823;SDS011;40724;53.196;5.980;2023-09-18T01:27:45;5.00;;;4.15;;
54823;SDS011;40724;53.196;5.980;2023-09-18T01:30:11;5.95;;;4.45;;
54823;SDS011;40724;53.196;5.980;2023-09-18T01:32:38;5.22;;;4.38;;
54823;SDS011;40724;53.196;5.980;2023-09-18T01:35:05;4.88;;;3.92;;
54823;SDS011;40724;53.196;5.980;2023-09-18T01:37:33;7.38;;;4.25;;
54823;SDS011;40724;53.196;5.980;2023-09-18T01:40:00;4.95;;;4.20;;
54823;SDS011;40724;53.196;5.980;2023-09-18T01:42:31;6.90;;;5.00;;
54823;SDS011;40724;53.196;5.980;2023-09-18T01:44:58;5.47;;;4.45;;
54823;SDS011;40724;53.196;5.980;2023-09-18T01:47:24;5.80;;;4.75;;
54823;SDS011;40724;53.196;5.980;2023-09-18T01:49:51;5.63;;;4.63;;
54823;SDS011;40724;53.196;5.980;2023-09-18T01:52:18;4.80;;;4.30;;
54823;SDS011;40724;53.196;5.980;2023-09-18T01:54:43;5.68;;;4.40;;
54823;SDS011;40724;53.196;5.980;2023-09-18T01:57:09;5.13;;;3.97;;
54823;SDS011;40724;53.196;5.980;2023-09-18T01:59:35;4.97;;;4.18;;
54823;SDS011;40724;53.196;5.980;2023-09-18T02:02:01;4.90;;;3.92;;
54823;SDS011;40724;53.196;5.980;2023-09-18T02:04:32;5.75;;;4.05;;
54823;SDS011;40724;53.196;5.980;2023-09-18T02:06:58;5.85;;;3.80;;
54823;SDS011;40724;53.196;5.980;2023-09-18T02:09:23;6.35;;;4.68;;
54823;SDS011;40724;53.196;5.980;2023-09-18T02:11:49;5.43;;;4.43;;
54823;SDS011;40724;53.196;5.980;2023-09-18T02:14:15;5.18;;;3.85;;
54823;SDS011;40724;53.196;5.980;2023-09-18T02:16:41;5.65;;;3.65;;
54823;SDS011;40724;53.196;5.980;2023-09-18T02:19:11;5.60;;;4.55;;
54823;SDS011;40724;53.196;5.980;2023-09-18T02:21:38;4.93;;;4.43;;
54823;SDS011;40724;53.196;5.980;2023-09-18T02:24:04;4.85;;;4.20;;
54823;SDS011;40724;53.196;5.980;2023-09-18T02:26:31;4.95;;;4.45;;
54823;SDS011;40724;53.196;5.980;2023-09-18T02:28:58;5.20;;;4.38;;
54823;SDS011;40724;53.196;5.980;2023-09-18T02:31:25;5.00;;;3.90;;
54823;SDS011;40724;53.196;5.980;2023-09-18T02:33:52;7.35;;;4.30;;
54823;SDS011;40724;53.196;5.980;2023-09-18T02:36:17;7.40;;;4.63;;
54823;SDS011;40724;53.196;5.980;2023-09-18T02:38:43;5.72;;;5.10;;
54823;SDS011;40724;53.196;5.980;2023-09-18T02:41:09;4.78;;;3.50;;
54823;SDS011;40724;53.196;5.980;2023-09-18T02:43:35;4.25;;;3.70;;
54823;SDS011;40724;53.196;5.980;2023-09-18T02:46:04;5.88;;;4.38;;
54823;SDS011;40724;53.196;5.980;2023-09-18T02:48:31;4.07;;;3.50;;
54823;SDS011;40724;53.196;5.980;2023-09-18T02:50:58;6.13;;;4.60;;
54823;SDS011;40724;53.196;5.980;2023-09-18T02:53:24;5.50;;;4.53;;
54823;SDS011;40724;53.196;5.980;2023-09-18T02:55:51;7.38;;;4.43;;
54823;SDS011;40724;53.196;5.980;2023-09-18T02:58:18;4.95;;;4.07;;
54823;SDS011;40724;53.196;5.980;2023-09-18T03:00:45;7.32;;;4.40;;
54823;SDS011;40724;53.196;5.980;2023-09-18T03:03:12;6.07;;;4.32;;
54823;SDS011;40724;53.196;5.980;2023-09-18T03:05:39;5.30;;;3.70;;
54823;SDS011;40724;53.196;5.980;2023-09-18T03:08:05;4.68;;;4.07;;
54823;SDS011;40724;53.196;5.980;2023-09-18T03:10:38;4.72;;;3.88;;
54823;SDS011;40724;53.196;5.980;2023-09-18T03:13:06;5.75;;;4.50;;
54823;SDS011;40724;53.196;5.980;2023-09-18T03:15:32;4.97;;;4.03;;
54823;SDS011;40724;53.196;5.980;2023-09-18T03:17:59;6.35;;;3.85;;
54823;SDS011;40724;53.196;5.980;2023-09-18T03:20:28;5.40;;;4.50;;
54823;SDS011;40724;53.196;5.980;2023-09-18T03:22:55;5.57;;;4.63;;
54823;SDS011;40724;53.196;5.980;2023-09-18T03:25:23;4.53;;;4.03;;
54823;SDS011;40724;53.196;5.980;2023-09-18T03:27:53;5.43;;;3.92;;
54823;SDS011;40724;53.196;5.980;2023-09-18T03:30:20;4.50;;;4.10;;
54823;SDS011;40724;53.196;5.980;2023-09-18T03:32:48;6.10;;;4.47;;
54823;SDS011;40724;53.196;5.980;2023-09-18T03:35:15;7.78;;;4.63;;
54823;SDS011;40724;53.196;5.980;2023-09-18T03:37:44;6.07;;;4.68;;
54823;SDS011;40724;53.196;5.980;2023-09-18T03:40:15;5.72;;;4.20;;
54823;SDS011;40724;53.196;5.980;2023-09-18T03:42:44;5.40;;;4.20;;
54823;SDS011;40724;53.196;5.980;2023-09-18T03:45:10;5.20;;;4.28;;
54823;SDS011;40724;53.196;5.980;2023-09-18T03:47:39;6.32;;;4.82;;
54823;SDS011;40724;53.196;5.980;2023-09-18T03:50:06;6.43;;;4.60;;
54823;SDS011;40724;53.196;5.980;2023-09-18T03:52:36;7.65;;;4.82;;
54823;SDS011;40724;53.196;5.980;2023-09-18T03:55:04;4.82;;;4.32;;
54823;SDS011;40724;53.196;5.980;2023-09-18T03:57:30;5.63;;;4.55;;
54823;SDS011;40724;53.196;5.980;2023-09-18T03:59:55;5.55;;;4.50;;
54823;SDS011;40724;53.196;5.980;2023-09-18T04:02:23;4.53;;;3.97;;
54823;SDS011;40724;53.196;5.980;2023-09-18T04:04:50;6.82;;;4.65;;
54823;SDS011;40724;53.196;5.980;2023-09-18T04:07:16;6.30;;;4.30;;
54823;SDS011;40724;53.196;5.980;2023-09-18T04:09:43;4.68;;;3.83;;
54823;SDS011;40724;53.196;5.980;2023-09-18T04:12:09;6.13;;;4.78;;
54823;SDS011;40724;53.196;5.980;2023-09-18T04:14:35;5.82;;;4.70;;
54823;SDS011;40724;53.196;5.980;2023-09-18T04:17:01;6.03;;;4.70;;
54823;SDS011;40724;53.196;5.980;2023-09-18T04:19:27;7.05;;;4.68;;
54823;SDS011;40724;53.196;5.980;2023-09-18T04:21:53;6.82;;;5.25;;
54823;SDS011;40724;53.196;5.980;2023-09-18T04:24:20;5.95;;;4.75;;
54823;SDS011;40724;53.196;5.980;2023-09-18T04:26:46;8.73;;;5.88;;
54823;SDS011;40724;53.196;5.980;2023-09-18T04:29:12;5.90;;;4.82;;
54823;SDS011;40724;53.196;5.980;2023-09-18T04:31:38;6.55;;;5.13;;
54823;SDS011;40724;53.196;5.980;2023-09-18T04:34:04;8.02;;;4.95;;
54823;SDS011;40724;53.196;5.980;2023-09-18T04:36:30;7.68;;;6.30;;
54823;SDS011;40724;53.196;5.980;2023-09-18T04:38:56;6.65;;;4.80;;
54823;SDS011;40724;53.196;5.980;2023-09-18T04:41:23;6.82;;;5.10;;
54823;SDS011;40724;53.196;5.980;2023-09-18T04:43:49;6.60;;;5.03;;
54823;SDS011;40724;53.196;5.980;2023-09-18T04:46:16;8.55;;;5.78;;
54823;SDS011;40724;53.196;5.980;2023-09-18T04:48:42;6.55;;;5.85;;
54823;SDS011;40724;53.196;5.980;2023-09-18T04:51:08;6.45;;;5.47;;
54823;SDS011;40724;53.196;5.980;2023-09-18T04:53:34;7.03;;;6.07;;
54823;SDS011;40724;53.196;5.980;2023-09-18T04:56:00;7.20;;;5.20;;
54823;SDS011;40724;53.196;5.980;2023-09-18T04:58:28;8.57;;;6.20;;
54823;SDS011;40724;53.196;5.980;2023-09-18T05:00:58;8.00;;;5.78;;
54823;SDS011;40724;53.196;5.980;2023-09-18T05:03:24;10.20;;;4.95;;
54823;SDS011;40724;53.196;5.980;2023-09-18T05:05:52;6.95;;;5.55;;
54823;SDS011;40724;53.196;5.980;2023-09-18T05:08:18;6.75;;;5.60;;
54823;SDS011;40724;53.196;5.980;2023-09-18T05:10:44;12.98;;;6.10;;
54823;SDS011;40724;53.196;5.980;2023-09-18T05:13:11;7.38;;;5.85;;
54823;SDS011;40724;53.196;5.980;2023-09-18T05:15:37;5.55;;;4.43;;
54823;SDS011;40724;53.196;5.980;2023-09-18T05:18:04;10.18;;;6.53;;
54823;SDS011;40724;53.196;5.980;2023-09-18T05:20:30;7.38;;;5.20;;
54823;SDS011;40724;53.196;5.980;2023-09-18T05:22:57;6.45;;;5.18;;
54823;SDS011;40724;53.196;5.980;2023-09-18T05:25:24;7.20;;;4.97;;
54823;SDS011;40724;53.196;5.980;2023-09-18T05:27:51;7.95;;;5.43;;
54823;SDS011;40724;53.196;5.980;2023-09-18T05:30:25;7.78;;;6.22;;
54823;SDS011;40724;53.196;5.980;2023-09-18T05:32:58;6.80;;;4.78;;
54823;SDS011;40724;53.196;5.980;2023-09-18T05:35:33;6.30;;;4.82;;
54823;SDS011;40724;53.196;5.980;2023-09-18T05:37:59;6.40;;;5.38;;
54823;SDS011;40724;53.196;5.980;2023-09-18T05:40:25;7.93;;;5.85;;
54823;SDS011;40724;53.196;5.980;2023-09-18T05:42:55;6.32;;;5.65;;
54823;SDS011;40724;53.196;5.980;2023-09-18T05:45:21;6.10;;;5.25;;
54823;SDS011;40724;53.196;5.980;2023-09-18T05:47:48;5.97;;;5.32;;
54823;SDS011;40724;53.196;5.980;2023-09-18T05:50:15;7.45;;;6.25;;
54823;SDS011;40724;53.196;5.980;2023-09-18T05:52:42;8.50;;;6.55;;
54823;SDS011;40724;53.196;5.980;2023-09-18T05:55:09;7.80;;;5.65;;
54823;SDS011;40724;53.196;5.980;2023-09-18T05:57:35;6.65;;;4.90;;
54823;SDS011;40724;53.196;5.980;2023-09-18T06:00:02;9.43;;;7.40;;
54823;SDS011;40724;53.196;5.980;2023-09-18T06:02:28;7.13;;;5.90;;
54823;SDS011;40724;53.196;5.980;2023-09-18T06:04:55;8.35;;;6.55;;
54823;SDS011;40724;53.196;5.980;2023-09-18T06:07:28;10.38;;;6.80;;
54823;SDS011;40724;53.196;5.980;2023-09-18T06:09:55;13.30;;;6.28;;
54823;SDS011;40724;53.196;5.980;2023-09-18T06:12:22;6.60;;;5.32;;
54823;SDS011;40724;53.196;5.980;2023-09-18T06:14:48;7.88;;;6.70;;
54823;SDS011;40724;53.196;5.980;2023-09-18T06:17:15;8.75;;;5.85;;
54823;SDS011;40724;53.196;5.980;2023-09-18T06:19:41;8.85;;;5.40;;
54823;SDS011;40724;53.196;5.980;2023-09-18T06:22:07;8.05;;;6.13;;
54823;SDS011;40724;53.196;5.980;2023-09-18T06:24:34;7.28;;;5.85;;
54823;SDS011;40724;53.196;5.980;2023-09-18T06:27:00;7.32;;;5.78;;
54823;SDS011;40724;53.196;5.980;2023-09-18T06:29:26;11.05;;;5.45;;
54823;SDS011;40724;53.196;5.980;2023-09-18T06:31:52;6.80;;;4.97;;
54823;SDS011;40724;53.196;5.980;2023-09-18T06:34:18;7.40;;;5.63;;
54823;SDS011;40724;53.196;5.980;2023-09-18T06:36:44;7.22;;;5.40;;
54823;SDS011;40724;53.196;5.980;2023-09-18T06:39:10;7.10;;;5.30;;
54823;SDS011;40724;53.196;5.980;2023-09-18T06:41:37;8.10;;;5.90;;
54823;SDS011;40724;53.196;5.980;2023-09-18T06:44:03;9.77;;;4.70;;
54823;SDS011;40724;53.196;5.980;2023-09-18T06:46:29;7.13;;;5.47;;
54823;SDS011;40724;53.196;5.980;2023-09-18T06:48:55;7.00;;;5.13;;
54823;SDS011;40724;53.196;5.980;2023-09-18T06:51:25;7.70;;;5.95;;
54823;SDS011;40724;53.196;5.980;2023-09-18T06:53:52;8.35;;;6.00;;
54823;SDS011;40724;53.196;5.980;2023-09-18T06:56:19;8.23;;;5.95;;
54823;SDS011;40724;53.196;5.980;2023-09-18T06:58:45;9.43;;;6.53;;
54823;SDS011;40724;53.196;5.980;2023-09-18T07:01:17;6.90;;;5.53;;
54823;SDS011;40724;53.196;5.980;2023-09-18T07:03:45;8.82;;;5.50;;
54823;SDS011;40724;53.196;5.980;2023-09-18T07:06:12;12.75;;;6.38;;
54823;SDS011;40724;53.196;5.980;2023-09-18T07:08:39;6.82;;;5.40;;
54823;SDS011;40724;53.196;5.980;2023-09-18T07:11:05;7.22;;;5.10;;
54823;SDS011;40724;53.196;5.980;2023-09-18T07:13:32;7.82;;;5.55;;
54823;SDS011;40724;53.196;5.980;2023-09-18T07:15:59;8.52;;;5.57;;
54823;SDS011;40724;53.196;5.980;2023-09-18T07:18:25;9.15;;;5.45;;
54823;SDS011;40724;53.196;5.980;2023-09-18T07:20:51;7.07;;;4.78;;
54823;SDS011;40724;53.196;5.980;2023-09-18T07:23:17;7.97;;;5.03;;
54823;SDS011;40724;53.196;5.980;2023-09-18T07:25:44;5.85;;;4.72;;
54823;SDS011;40724;53.196;5.980;2023-09-18T07:28:10;10.10;;;5.72;;
54823;SDS011;40724;53.196;5.980;2023-09-18T07:30:41;7.15;;;5.43;;
54823;SDS011;40724;53.196;5.980;2023-09-18T07:33:09;5.45;;;4.60;;
54823;SDS011;40724;53.196;5.980;2023-09-18T07:35:35;5.65;;;4.28;;
54823;SDS011;40724;53.196;5.980;2023-09-18T07:38:01;10.18;;;4.70;;
54823;SDS011;40724;53.196;5.980;2023-09-18T07:40:27;6.95;;;4.25;;
54823;SDS011;40724;53.196;5.980;2023-09-18T07:42:53;6.43;;;4.70;;
54823;SDS011;40724;53.196;5.980;2023-09-18T07:45:19;5.95;;;4.65;;
54823;SDS011;40724;53.196;5.980;2023-09-18T07:47:45;6.72;;;3.70;;
54823;SDS011;40724;53.196;5.980;2023-09-18T07:50:12;7.68;;;4.65;;
54823;SDS011;40724;53.196;5.980;2023-09-18T07:52:38;5.40;;;3.65;;
54823;SDS011;40724;53.196;5.980;2023-09-18T07:55:04;5.93;;;3.75;;
54823;SDS011;40724;53.196;5.980;2023-09-18T07:57:31;9.82;;;4.13;;
54823;SDS011;40724;53.196;5.980;2023-09-18T07:59:59;5.30;;;3.30;;
54823;SDS011;40724;53.196;5.980;2023-09-18T08:02:36;6.00;;;3.65;;
54823;SDS011;40724;53.196;5.980;2023-09-18T08:05:04;6.35;;;4.10;;
54823;SDS011;40724;53.196;5.980;2023-09-18T08:07:30;5.55;;;3.33;;
54823;SDS011;40724;53.196;5.980;2023-09-18T08:09:57;6.85;;;3.50;;
54823;SDS011;40724;53.196;5.980;2023-09-18T08:12:23;4.78;;;3.05;;
54823;SDS011;40724;53.196;5.980;2023-09-18T08:14:49;5.20;;;3.55;;
54823;SDS011;40724;53.196;5.980;2023-09-18T08:17:16;4.20;;;3.22;;
54823;SDS011;40724;53.196;5.980;2023-09-18T08:19:42;4.38;;;2.97;;
54823;SDS011;40724;53.196;5.980;2023-09-18T08:22:09;5.63;;;2.85;;
54823;SDS011;40724;53.196;5.980;2023-09-18T08:24:40;5.35;;;3.60;;
54823;SDS011;40724;53.196;5.980;2023-09-18T08:27:07;5.22;;;2.60;;
54823;SDS011;40724;53.196;5.980;2023-09-18T08:29:33;4.28;;;2.75;;
54823;SDS011;40724;53.196;5.980;2023-09-18T08:31:59;5.38;;;2.85;;
54823;SDS011;40724;53.196;5.980;2023-09-18T08:34:25;6.63;;;2.95;;
54823;SDS011;40724;53.196;5.980;2023-09-18T08:36:51;4.47;;;2.63;;
54823;SDS011;40724;53.196;5.980;2023-09-18T08:39:17;5.25;;;3.08;;
54823;SDS011;40724;53.196;5.980;2023-09-18T08:41:43;4.80;;;3.10;;
54823;SDS011;40724;53.196;5.980;2023-09-18T08:44:11;3.28;;;2.45;;
54823;SDS011;40724;53.196;5.980;2023-09-18T08:46:38;3.60;;;2.58;;
54823;SDS011;40724;53.196;5.980;2023-09-18T08:49:04;4.90;;;2.90;;
54823;SDS011;40724;53.196;5.980;2023-09-18T08:51:30;6.57;;;2.60;;
54823;SDS011;40724;53.196;5.980;2023-09-18T08:53:58;4.35;;;2.83;;
54823;SDS011;40724;53.196;5.980;2023-09-18T08:56:24;4.15;;;2.25;;
54823;SDS011;40724;53.196;5.980;2023-09-18T08:58:51;4.35;;;2.22;;
54823;SDS011;40724;53.196;5.980;2023-09-18T09:01:18;4.00;;;2.70;;
54823;SDS011;40724;53.196;5.980;2023-09-18T09:03:44;6.43;;;2.65;;
54823;SDS011;40724;53.196;5.980;2023-09-18T09:06:10;4.53;;;2.63;;
54823;SDS011;40724;53.196;5.980;2023-09-18T09:08:37;6.20;;;2.50;;
54823;SDS011;40724;53.196;5.980;2023-09-18T09:11:04;6.75;;;2.72;;
54823;SDS011;40724;53.196;5.980;2023-09-18T09:13:30;4.63;;;3.10;;
54823;SDS011;40724;53.196;5.980;2023-09-18T09:15:57;4.40;;;3.00;;
54823;SDS011;40724;53.196;5.980;2023-09-18T09:18:28;3.38;;;2.60;;
54823;SDS011;40724;53.196;5.980;2023-09-18T09:20:58;5.80;;;3.15;;
54823;SDS011;40724;53.196;5.980;2023-09-18T09:23:25;5.35;;;2.65;;
54823;SDS011;40724;53.196;5.980;2023-09-18T09:25:51;4.28;;;3.40;;
54823;SDS011;40724;53.196;5.980;2023-09-18T09:28:28;4.47;;;3.15;;
54823;SDS011;40724;53.196;5.980;2023-09-18T09:30:59;4.72;;;2.75;;
54823;SDS011;40724;53.196;5.980;2023-09-18T09:33:27;6.07;;;2.60;;
54823;SDS011;40724;53.196;5.980;2023-09-18T09:35:54;4.50;;;3.53;;
54823;SDS011;40724;53.196;5.980;2023-09-18T09:38:22;4.18;;;2.70;;
54823;SDS011;40724;53.196;5.980;2023-09-18T09:40:53;5.00;;;3.10;;
54823;SDS011;40724;53.196;5.980;2023-09-18T09:43:19;7.20;;;3.10;;
54823;SDS011;40724;53.196;5.980;2023-09-18T09:45:45;4.70;;;3.20;;
54823;SDS011;40724;53.196;5.980;2023-09-18T09:48:12;5.60;;;3.30;;
54823;SDS011;40724;53.196;5.980;2023-09-18T09:50:45;3.97;;;2.97;;
54823;SDS011;40724;53.196;5.980;2023-09-18T09:53:12;5.35;;;3.13;;
54823;SDS011;40724;53.196;5.980;2023-09-18T09:55:39;5.80;;;3.42;;
54823;SDS011;40724;53.196;5.980;2023-09-18T09:58:06;8.02;;;3.20;;
54823;SDS011;40724;53.196;5.980;2023-09-18T10:00:40;6.00;;;3.65;;
54823;SDS011;40724;53.196;5.980;2023-09-18T10:03:17;7.50;;;4.38;;
54823;SDS011;40724;53.196;5.980;2023-09-18T10:05:45;4.40;;;3.20;;
54823;SDS011;40724;53.196;5.980;2023-09-18T10:08:22;6.40;;;4.50;;
54823;SDS011;40724;53.196;5.980;2023-09-18T10:10:50;5.10;;;4.10;;
54823;SDS011;40724;53.196;5.980;2023-09-18T10:13:26;3.95;;;3.40;;
54823;SDS011;40724;53.196;5.980;2023-09-18T10:15:53;4.50;;;3.92;;
54823;SDS011;40724;53.196;5.980;2023-09-18T10:18:26;8.40;;;4.32;;
54823;SDS011;40724;53.196;5.980;2023-09-18T10:20:54;6.05;;;4.97;;
54823;SDS011;40724;53.196;5.980;2023-09-18T10:23:38;14.73;;;5.43;;
54823;SDS011;40724;53.196;5.980;2023-09-18T10:26:26;5.45;;;4.68;;
54823;SDS011;40724;53.196;5.980;2023-09-18T10:28:58;6.03;;;5.15;;
54823;SDS011;40724;53.196;5.980;2023-09-18T10:31:28;9.85;;;5.22;;
54823;SDS011;40724;53.196;5.980;2023-09-18T10:33:57;9.50;;;5.35;;
54823;SDS011;40724;53.196;5.980;2023-09-18T10:36:25;9.07;;;5.35;;
54823;SDS011;40724;53.196;5.980;2023-09-18T10:38:51;6.13;;;4.78;;
54823;SDS011;40724;53.196;5.980;2023-09-18T10:41:20;7.07;;;5.38;;
54823;SDS011;40724;53.196;5.980;2023-09-18T10:43:46;5.55;;;4.90;;
54823;SDS011;40724;53.196;5.980;2023-09-18T10:46:15;6.40;;;5.35;;
54823;SDS011;40724;53.196;5.980;2023-09-18T10:48:42;6.35;;;4.75;;
54823;SDS011;40724;53.196;5.980;2023-09-18T10:51:09;5.68;;;4.60;;
54823;SDS011;40724;53.196;5.980;2023-09-18T10:53:39;7.05;;;5.20;;
54823;SDS011;40724;53.196;5.980;2023-09-18T10:56:05;5.25;;;4.03;;
54823;SDS011;40724;53.196;5.980;2023-09-18T10:58:32;5.32;;;4.57;;
54823;SDS011;40724;53.196;5.980;2023-09-18T11:01:01;5.38;;;4.43;;
54823;SDS011;40724;53.196;5.980;2023-09-18T11:03:33;6.70;;;5.15;;
54823;SDS011;40724;53.196;5.980;2023-09-18T11:06:10;6.13;;;4.47;;
54823;SDS011;40724;53.196;5.980;2023-09-18T11:08:44;5.45;;;4.40;;
54823;SDS011;40724;53.196;5.980;2023-09-18T11:11:11;5.30;;;3.97;;
54823;SDS011;40724;53.196;5.980;2023-09-18T11:13:46;6.03;;;3.85;;
54823;SDS011;40724;53.196;5.980;2023-09-18T11:16:13;6.15;;;4.50;;
54823;SDS011;40724;53.196;5.980;2023-09-18T11:18:39;8.98;;;4.28;;
54823;SDS011;40724;53.196;5.980;2023-09-18T11:21:06;6.15;;;3.97;;
54823;SDS011;40724;53.196;5.980;2023-09-18T11:23:37;10.13;;;3.70;;
54823;SDS011;40724;53.196;5.980;2023-09-18T11:26:08;5.18;;;3.45;;
54823;SDS011;40724;53.196;5.980;2023-09-18T11:28:40;5.28;;;3.40;;
54823;SDS011;40724;53.196;5.980;2023-09-18T11:31:08;5.35;;;3.45;;
54823;SDS011;40724;53.196;5.980;2023-09-18T11:33:37;6.35;;;3.88;;
54823;SDS011;40724;53.196;5.980;2023-09-18T11:36:05;5.70;;;3.35;;
54823;SDS011;40724;53.196;5.980;2023-09-18T11:38:32;5.97;;;3.60;;
54823;SDS011;40724;53.196;5.980;2023-09-18T11:41:26;4.60;;;3.20;;
54823;SDS011;40724;53.196;5.980;2023-09-18T11:46:38;6.97;;;3.53;;
54823;SDS011;40724;53.196;5.980;2023-09-18T11:49:08;4.15;;;3.10;;
54823;SDS011;40724;53.196;5.980;2023-09-18T11:51:36;5.63;;;3.30;;
54823;SDS011;40724;53.196;5.980;2023-09-18T11:54:03;9.45;;;2.95;;
54823;SDS011;40724;53.196;5.980;2023-09-18T11:56:31;6.50;;;2.95;;
54823;SDS011;40724;53.196;5.980;2023-09-18T11:58:58;4.25;;;2.80;;
54823;SDS011;40724;53.196;5.980;2023-09-18T12:01:25;5.18;;;3.10;;
54823;SDS011;40724;53.196;5.980;2023-09-18T12:04:02;7.85;;;3.30;;
54823;SDS011;40724;53.196;5.980;2023-09-18T12:06:35;4.55;;;3.03;;
54823;SDS011;40724;53.196;5.980;2023-09-18T12:09:02;3.95;;;3.03;;
54823;SDS011;40724;53.196;5.980;2023-09-18T12:11:29;4.13;;;3.10;;
54823;SDS011;40724;53.196;5.980;2023-09-18T12:13:55;5.00;;;2.88;;
54823;SDS011;40724;53.196;5.980;2023-09-18T12:16:23;5.90;;;2.85;;
54823;SDS011;40724;53.196;5.980;2023-09-18T12:18:49;6.55;;;3.30;;
54823;SDS011;40724;53.196;5.980;2023-09-18T12:21:16;4.63;;;3.13;;
54823;SDS011;40724;53.196;5.980;2023-09-18T12:23:43;6.35;;;3.40;;
54823;SDS011;40724;53.196;5.980;2023-09-18T12:26:13;6.10;;;3.33;;
54823;SDS011;40724;53.196;5.980;2023-09-18T12:28:40;4.38;;;2.80;;
54823;SDS011;40724;53.196;5.980;2023-09-18T12:31:09;6.18;;;3.25;;
54823;SDS011;40724;53.196;5.980;2023-09-18T12:33:39;5.15;;;2.85;;
54823;SDS011;40724;53.196;5.980;2023-09-18T12:36:06;4.47;;;3.22;;
54823;SDS011;40724;53.196;5.980;2023-09-18T12:38:33;4.35;;;2.85;;
54823;SDS011;40724;53.196;5.980;2023-09-18T12:40:59;5.75;;;3.40;;
54823;SDS011;40724;53.196;5.980;2023-09-18T12:46:02;4.63;;;2.85;;
54823;SDS011;40724;53.196;5.980;2023-09-18T12:48:30;4.28;;;3.38;;
54823;SDS011;40724;53.196;5.980;2023-09-18T12:51:01;4.13;;;3.05;;
54823;SDS011;40724;53.196;5.980;2023-09-18T12:53:29;3.40;;;3.08;;
54823;SDS011;40724;53.196;5.980;2023-09-18T12:55:54;4.13;;;2.97;;
54823;SDS011;40724;53.196;5.980;2023-09-18T12:58:30;9.35;;;3.95;;
54823;SDS011;40724;53.196;5.980;2023-09-18T13:00:57;3.60;;;2.97;;
54823;SDS011;40724;53.196;5.980;2023-09-18T13:03:22;3.10;;;2.70;;
54823;SDS011;40724;53.196;5.980;2023-09-18T13:05:48;5.47;;;3.33;;
54823;SDS011;40724;53.196;5.980;2023-09-18T13:08:21;3.20;;;2.80;;
54823;SDS011;40724;53.196;5.980;2023-09-18T13:10:47;3.70;;;2.80;;
54823;SDS011;40724;53.196;5.980;2023-09-18T13:13:16;4.50;;;2.95;;
54823;SDS011;40724;53.196;5.980;2023-09-18T13:15:46;5.70;;;3.17;;
54823;SDS011;40724;53.196;5.980;2023-09-18T13:18:13;4.32;;;3.05;;
54823;SDS011;40724;53.196;5.980;2023-09-18T13:20:40;5.15;;;3.28;;
54823;SDS011;40724;53.196;5.980;2023-09-18T13:23:07;6.75;;;3.15;;
54823;SDS011;40724;53.196;5.980;2023-09-18T13:25:37;4.45;;;2.95;;
54823;SDS011;40724;53.196;5.980;2023-09-18T13:28:06;4.53;;;3.00;;
54823;SDS011;40724;53.196;5.980;2023-09-18T13:30:34;3.78;;;3.22;;
54823;SDS011;40724;53.196;5.980;2023-09-18T13:33:08;4.20;;;2.92;;
54823;SDS011;40724;53.196;5.980;2023-09-18T13:35:36;3.70;;;2.92;;
54823;SDS011;40724;53.196;5.980;2023-09-18T13:38:04;5.97;;;2.95;;
54823;SDS011;40724;53.196;5.980;2023-09-18T13:40:36;3.65;;;3.17;;
54823;SDS011;40724;53.196;5.980;2023-09-18T13:43:06;4.15;;;2.80;;
54823;SDS011;40724;53.196;5.980;2023-09-18T13:45:36;5.18;;;3.10;;
54823;SDS011;40724;53.196;5.980;2023-09-18T13:48:06;4.28;;;3.47;;
54823;SDS011;40724;53.196;5.980;2023-09-18T13:50:32;2.65;;;2.35;;
54823;SDS011;40724;53.196;5.980;2023-09-18T13:52:59;4.13;;;2.70;;
54823;SDS011;40724;53.196;5.980;2023-09-18T13:55:26;3.05;;;2.22;;
54823;SDS011;40724;53.196;5.980;2023-09-18T13:57:52;5.65;;;3.42;;
54823;SDS011;40724;53.196;5.980;2023-09-18T14:00:18;7.07;;;3.50;;
54823;SDS011;40724;53.196;5.980;2023-09-18T14:02:43;5.13;;;2.88;;
54823;SDS011;40724;53.196;5.980;2023-09-18T14:05:09;3.03;;;2.72;;
54823;SDS011;40724;53.196;5.980;2023-09-18T14:07:36;4.82;;;2.88;;
54823;SDS011;40724;53.196;5.980;2023-09-18T14:10:04;4.55;;;2.83;;
54823;SDS011;40724;53.196;5.980;2023-09-18T14:12:32;4.25;;;2.58;;
54823;SDS011;40724;53.196;5.980;2023-09-18T14:14:58;3.47;;;2.30;;
54823;SDS011;40724;53.196;5.980;2023-09-18T14:17:25;4.88;;;2.28;;
54823;SDS011;40724;53.196;5.980;2023-09-18T14:19:51;3.40;;;2.58;;
54823;SDS011;40724;53.196;5.980;2023-09-18T14:22:18;4.28;;;2.58;;
54823;SDS011;40724;53.196;5.980;2023-09-18T14:24:44;4.90;;;2.42;;
54823;SDS011;40724;53.196;5.980;2023-09-18T14:27:11;4.50;;;2.50;;
54823;SDS011;40724;53.196;5.980;2023-09-18T14:29:37;6.90;;;2.55;;
54823;SDS011;40724;53.196;5.980;2023-09-18T14:32:03;2.97;;;2.25;;
54823;SDS011;40724;53.196;5.980;2023-09-18T14:34:30;4.85;;;2.15;;
54823;SDS011;40724;53.196;5.980;2023-09-18T14:36:56;3.45;;;2.35;;
54823;SDS011;40724;53.196;5.980;2023-09-18T14:39:22;3.03;;;2.08;;
54823;SDS011;40724;53.196;5.980;2023-09-18T14:41:48;5.10;;;2.65;;
54823;SDS011;40724;53.196;5.980;2023-09-18T14:44:14;3.33;;;1.95;;
54823;SDS011;40724;53.196;5.980;2023-09-18T14:46:40;3.05;;;2.08;;
54823;SDS011;40724;53.196;5.980;2023-09-18T14:49:06;3.90;;;2.50;;
54823;SDS011;40724;53.196;5.980;2023-09-18T14:51:32;3.47;;;1.98;;
54823;SDS011;40724;53.196;5.980;2023-09-18T14:53:59;4.43;;;2.13;;
54823;SDS011;40724;53.196;5.980;2023-09-18T14:56:26;4.60;;;2.10;;